createdAt,value
2022-10-18T00:02:44.060Z,7.55
2022-10-18T00:05:10.605Z,7.78
2022-10-18T00:07:37.209Z,7.80
2022-10-18T00:10:04.952Z,6.68
2022-10-18T00:12:34.142Z,7.93
2022-10-18T00:15:01.071Z,6.63
2022-10-18T00:17:27.922Z,7.13
2022-10-18T00:19:54.691Z,7.70
2022-10-18T00:22:21.290Z,8.00
2022-10-18T00:24:47.820Z,7.68
2022-10-18T00:27:17.604Z,7.68
2022-10-18T00:29:44.111Z,7.45
2022-10-18T00:32:12.088Z,6.85
2022-10-18T00:34:40.138Z,6.85
2022-10-18T00:37:06.835Z,7.20
2022-10-18T00:39:33.434Z,6.68
2022-10-18T00:41:59.922Z,5.75
2022-10-18T00:44:26.289Z,7.45
2022-10-18T00:46:56.751Z,6.75
2022-10-18T00:49:35.690Z,7.35
2022-10-18T00:52:21.594Z,6.07
2022-10-18T00:54:49.741Z,7.72
2022-10-18T00:57:16.734Z,7.40
2022-10-18T00:59:44.461Z,6.30
2022-10-18T01:02:11.221Z,7.35
2022-10-18T01:04:37.835Z,6.18
2022-10-18T01:07:21.984Z,7.00
2022-10-18T01:10:00.744Z,7.50
2022-10-18T01:12:42.402Z,6.85
2022-10-18T01:15:17.953Z,6.57
2022-10-18T01:18:08.211Z,5.97
2022-10-18T01:20:37.735Z,6.82
2022-10-18T01:23:10.964Z,6.78
2022-10-18T01:26:11.140Z,6.75
2022-10-18T01:28:58.891Z,6.63
2022-10-18T01:31:32.798Z,7.03
2022-10-18T01:34:08.033Z,6.90
2022-10-18T01:36:42.015Z,7.25
2022-10-18T01:39:13.965Z,7.03
2022-10-18T01:41:43.434Z,5.82
2022-10-18T01:44:15.051Z,6.85
2022-10-18T01:46:42.835Z,6.53
2022-10-18T01:49:09.311Z,6.78
2022-10-18T01:51:35.793Z,6.35
2022-10-18T01:54:02.537Z,7.15
2022-10-18T01:57:04.694Z,6.82
2022-10-18T01:59:59.137Z,6.38
2022-10-18T02:02:37.957Z,6.60
2022-10-18T02:05:23.339Z,6.20
2022-10-18T02:08:22.152Z,6.38
2022-10-18T02:11:03.592Z,4.78
2022-10-18T02:13:35.317Z,5.10
2022-10-18T02:16:10.155Z,5.60
2022-10-18T02:18:41.389Z,4.85
2022-10-18T02:21:12.135Z,5.75
2022-10-18T02:23:39.231Z,5.32
2022-10-18T02:26:07.821Z,4.93
2022-10-18T02:28:34.440Z,5.32
2022-10-18T02:31:18.947Z,5.28
2022-10-18T02:33:48.699Z,5.22
2022-10-18T02:36:23.717Z,5.60
2022-10-18T02:38:56.043Z,5.65
2022-10-18T02:41:27.228Z,5.40
2022-10-18T02:43:54.337Z,5.20
2022-10-18T02:46:21.371Z,5.57
2022-10-18T02:48:48.306Z,5.32
2022-10-18T02:51:14.808Z,4.80
2022-10-18T02:53:41.479Z,5.07
2022-10-18T02:56:08.767Z,5.13
2022-10-18T02:58:35.198Z,5.28
2022-10-18T03:01:01.675Z,4.50
2022-10-18T03:03:28.102Z,4.97
2022-10-18T03:05:54.511Z,5.13
2022-10-18T03:08:22.610Z,5.32
2022-10-18T03:10:48.995Z,5.13
2022-10-18T03:13:15.863Z,5.85
2022-10-18T03:15:44.047Z,4.43
2022-10-18T03:18:10.595Z,4.82
2022-10-18T03:20:37.197Z,4.82
2022-10-18T03:23:03.725Z,4.43
2022-10-18T03:25:30.092Z,5.53
2022-10-18T03:27:56.545Z,5.32
2022-10-18T03:30:23.026Z,4.80
2022-10-18T03:32:49.574Z,6.07
2022-10-18T03:35:16.420Z,5.15
2022-10-18T03:37:42.868Z,5.60
2022-10-18T03:40:09.504Z,5.38
2022-10-18T03:42:35.904Z,5.43
2022-10-18T03:45:04.414Z,5.68
2022-10-18T03:47:30.924Z,5.78
2022-10-18T03:49:57.542Z,5.78
2022-10-18T03:52:24.059Z,5.60
2022-10-18T03:54:50.453Z,6.45
2022-10-18T03:57:19.876Z,5.53
2022-10-18T03:59:48.546Z,5.50
2022-10-18T04:02:15.056Z,6.15
2022-10-18T04:04:41.513Z,5.78
2022-10-18T04:07:11.220Z,5.65
2022-10-18T04:09:37.732Z,5.35
2022-10-18T04:12:04.373Z,5.95
2022-10-18T04:14:30.792Z,5.80
2022-10-18T04:16:57.222Z,5.82
2022-10-18T04:19:23.659Z,5.55
2022-10-18T04:21:50.191Z,5.63
2022-10-18T04:24:17.903Z,5.88
2022-10-18T04:26:44.443Z,6.40
2022-10-18T04:29:10.909Z,6.53
2022-10-18T04:31:37.354Z,6.60
2022-10-18T04:34:04.415Z,6.40
2022-10-18T04:36:31.613Z,6.30
2022-10-18T04:38:58.058Z,5.97
2022-10-18T04:41:24.438Z,5.55
2022-10-18T04:43:50.856Z,6.18
2022-10-18T04:46:19.632Z,5.55
2022-10-18T04:48:47.334Z,5.50
2022-10-18T04:51:13.861Z,6.93
2022-10-18T04:53:43.213Z,6.30
2022-10-18T04:56:09.681Z,6.47
2022-10-18T04:58:36.104Z,5.88
2022-10-18T05:01:06.887Z,5.95
2022-10-18T05:03:33.981Z,5.72
2022-10-18T05:06:02.172Z,6.10
2022-10-18T05:08:31.055Z,5.70
2022-10-18T05:10:58.015Z,5.28
2022-10-18T05:13:25.507Z,5.82
2022-10-18T05:15:51.992Z,5.80
2022-10-18T05:18:18.398Z,6.07
2022-10-18T05:20:44.843Z,6.70
2022-10-18T05:23:11.363Z,6.30
2022-10-18T05:25:47.166Z,6.30
2022-10-18T05:28:38.225Z,7.03
2022-10-18T05:31:04.584Z,5.70
2022-10-18T05:33:31.907Z,6.60
2022-10-18T05:35:58.667Z,5.75
2022-10-18T05:38:25.341Z,6.32
2022-10-18T05:40:52.131Z,5.63
2022-10-18T05:43:18.584Z,5.72
2022-10-18T05:45:49.343Z,6.22
2022-10-18T05:48:15.666Z,7.43
2022-10-18T05:50:42.314Z,7.38
2022-10-18T05:53:12.384Z,6.50
2022-10-18T05:55:45.002Z,6.65
2022-10-18T05:58:11.427Z,6.22
2022-10-18T06:00:38.661Z,6.47
2022-10-18T06:03:04.996Z,6.50
2022-10-18T06:05:31.520Z,6.20
2022-10-18T06:07:58.021Z,6.30
2022-10-18T06:10:24.761Z,7.10
2022-10-18T06:12:51.235Z,6.75
2022-10-18T06:15:17.913Z,7.50
2022-10-18T06:17:44.324Z,6.93
2022-10-18T06:20:10.713Z,6.90
2022-10-18T06:22:37.167Z,6.88
2022-10-18T06:25:03.713Z,7.15
2022-10-18T06:27:31.873Z,6.55
2022-10-18T06:30:01.451Z,7.47
2022-10-18T06:32:30.846Z,7.18
2022-10-18T06:34:57.295Z,5.75
2022-10-18T06:37:23.906Z,6.72
2022-10-18T06:39:50.374Z,7.38
2022-10-18T06:42:19.074Z,6.35
2022-10-18T06:44:48.377Z,6.35
2022-10-18T06:47:14.806Z,6.05
2022-10-18T06:49:43.974Z,6.82
2022-10-18T06:52:10.442Z,6.20
2022-10-18T06:54:36.811Z,8.25
2022-10-18T06:57:03.317Z,8.10
2022-10-18T06:59:31.333Z,8.13
2022-10-18T07:01:58.150Z,9.35
2022-10-18T07:04:27.640Z,8.82
2022-10-18T07:06:56.571Z,7.72
2022-10-18T07:09:24.504Z,10.57
2022-10-18T07:11:52.729Z,11.88
2022-10-18T07:14:19.141Z,12.23
2022-10-18T07:16:45.519Z,12.60
2022-10-18T07:19:12.181Z,13.98
2022-10-18T07:21:38.556Z,12.65
2022-10-18T07:24:05.268Z,12.50
2022-10-18T07:26:33.463Z,14.15
2022-10-18T07:29:05.474Z,14.48
2022-10-18T07:31:32.008Z,12.98
2022-10-18T07:33:58.773Z,13.85
2022-10-18T07:36:27.395Z,14.70
2022-10-18T07:38:54.043Z,15.00
2022-10-18T07:41:21.569Z,14.55
2022-10-18T07:43:50.868Z,14.82
2022-10-18T07:46:19.529Z,14.80
2022-10-18T07:48:46.484Z,14.43
2022-10-18T07:51:16.776Z,15.55
2022-10-18T07:53:46.483Z,17.02
2022-10-18T07:56:16.491Z,17.52
2022-10-18T07:58:44.384Z,18.40
2022-10-18T08:01:11.602Z,17.02
2022-10-18T08:03:38.738Z,17.00
2022-10-18T08:06:09.526Z,18.45
2022-10-18T08:08:37.748Z,17.52
2022-10-18T08:11:14.716Z,16.40
2022-10-18T08:13:41.222Z,16.70
2022-10-18T08:16:14.445Z,16.98
2022-10-18T08:18:41.902Z,16.55
2022-10-18T08:21:10.568Z,15.70
2022-10-18T08:23:37.941Z,15.65
2022-10-18T08:26:06.762Z,15.25
2022-10-18T08:28:36.517Z,15.48
2022-10-18T08:31:08.168Z,16.75
2022-10-18T08:33:36.063Z,16.90
2022-10-18T08:36:05.896Z,15.05
2022-10-18T08:38:34.603Z,16.17
2022-10-18T08:41:18.621Z,15.95
2022-10-18T08:44:04.786Z,16.63
2022-10-18T08:46:36.947Z,16.05
2022-10-18T08:49:05.569Z,14.80
2022-10-18T08:51:46.588Z,15.73
2022-10-18T08:54:24.253Z,16.27
2022-10-18T08:57:01.681Z,15.95
2022-10-18T08:59:45.968Z,15.15
2022-10-18T09:02:36.465Z,13.30
2022-10-18T09:05:22.741Z,14.73
2022-10-18T09:08:09.576Z,15.02
2022-10-18T09:11:17.426Z,13.93
2022-10-18T09:14:21.222Z,14.90
2022-10-18T09:17:19.760Z,13.88
2022-10-18T09:19:55.152Z,13.93
2022-10-18T09:22:45.442Z,13.80
2022-10-18T09:25:42.287Z,13.65
2022-10-18T09:28:19.744Z,11.82
2022-10-18T09:31:09.429Z,10.82
2022-10-18T09:34:01.498Z,10.95
2022-10-18T09:36:39.308Z,9.68
2022-10-18T09:39:13.217Z,10.27
2022-10-18T09:41:49.674Z,10.48
2022-10-18T09:44:25.584Z,11.13
2022-10-18T09:47:02.863Z,10.45
2022-10-18T09:49:36.673Z,10.73
2022-10-18T09:52:08.999Z,9.48
2022-10-18T09:54:47.879Z,10.57
2022-10-18T09:57:31.834Z,9.85
2022-10-18T10:00:03.421Z,9.80
2022-10-18T10:02:32.003Z,9.25
2022-10-18T10:04:58.540Z,10.32
2022-10-18T10:07:31.052Z,9.85
2022-10-18T10:10:25.718Z,9.82
2022-10-18T10:13:22.653Z,11.32
2022-10-18T10:15:59.343Z,10.48
2022-10-18T10:18:30.884Z,10.18
2022-10-18T10:21:03.633Z,9.88
2022-10-18T10:23:37.608Z,10.85
2022-10-18T10:26:07.332Z,10.68
2022-10-18T10:28:38.213Z,10.55
2022-10-18T10:31:24.918Z,10.90
2022-10-18T10:34:06.369Z,10.43
2022-10-18T10:36:34.974Z,10.35
2022-10-18T10:39:12.811Z,10.75
2022-10-18T10:41:41.228Z,9.30
2022-10-18T10:44:19.901Z,9.88
2022-10-18T10:46:52.061Z,9.82
2022-10-18T10:49:40.632Z,10.05
2022-10-18T10:52:26.961Z,9.35
2022-10-18T10:55:05.857Z,8.52
2022-10-18T10:57:38.503Z,8.68
2022-10-18T11:00:08.000Z,9.05
2022-10-18T11:02:37.842Z,8.77
2022-10-18T11:05:27.057Z,9.45
2022-10-18T11:07:56.688Z,8.70
2022-10-18T11:10:27.524Z,8.88
2022-10-18T11:13:02.627Z,8.10
2022-10-18T11:15:48.106Z,9.05
2022-10-18T11:18:21.617Z,7.82
2022-10-18T11:21:28.257Z,7.80
2022-10-18T11:23:55.215Z,7.80
2022-10-18T11:26:40.976Z,7.65
2022-10-18T11:29:38.255Z,7.85
2022-10-18T11:32:26.721Z,7.85
2022-10-18T11:35:23.760Z,8.18
2022-10-18T11:38:02.957Z,9.48
2022-10-18T11:40:41.637Z,9.60
2022-10-18T11:43:57.094Z,10.20
2022-10-18T11:46:36.260Z,9.57
2022-10-18T11:49:36.305Z,9.70
2022-10-18T11:52:09.285Z,9.40
2022-10-18T11:54:59.172Z,9.07
2022-10-18T11:57:45.178Z,9.13
2022-10-18T12:00:40.796Z,9.60
2022-10-18T12:03:18.451Z,9.25
2022-10-18T12:05:50.228Z,9.43
2022-10-18T12:08:23.809Z,8.82
2022-10-18T12:11:04.730Z,9.55
2022-10-18T12:13:47.879Z,7.97
2022-10-18T12:16:15.485Z,8.55
2022-10-18T12:19:07.561Z,7.88
2022-10-18T12:21:34.416Z,7.25
2022-10-18T12:24:21.379Z,8.75
2022-10-18T12:26:51.801Z,8.20
2022-10-18T12:29:27.244Z,8.80
2022-10-18T12:31:59.322Z,8.10
2022-10-18T12:34:39.217Z,6.63
2022-10-18T12:37:26.018Z,7.80
2022-10-18T12:40:20.443Z,7.45
2022-10-18T12:42:50.256Z,7.95
2022-10-18T12:45:34.095Z,7.57
2022-10-18T12:48:08.517Z,6.80
2022-10-18T12:50:36.618Z,6.10
2022-10-18T12:53:12.276Z,6.15
2022-10-18T12:55:45.233Z,6.28
2022-10-18T12:58:14.692Z,6.43
2022-10-18T13:00:41.627Z,6.80
2022-10-18T13:03:17.852Z,6.47
2022-10-18T13:05:56.084Z,5.68
2022-10-18T13:08:33.183Z,5.72
2022-10-18T13:11:08.872Z,5.22
2022-10-18T13:13:45.064Z,4.68
2022-10-18T13:16:26.634Z,5.22
2022-10-18T13:19:15.226Z,4.15
2022-10-18T13:21:52.384Z,4.72
2022-10-18T13:24:30.646Z,3.50
2022-10-18T13:27:04.209Z,3.38
2022-10-18T13:30:08.890Z,3.55
2022-10-18T13:32:37.036Z,13.23
2022-10-18T13:35:03.767Z,2.90
2022-10-18T13:37:30.901Z,2.53
2022-10-18T13:40:24.219Z,3.10
2022-10-18T13:42:50.917Z,2.58
2022-10-18T13:45:32.576Z,2.70
2022-10-18T13:48:42.220Z,3.38
2022-10-18T13:51:44.747Z,2.92
2022-10-18T13:54:31.965Z,2.78
2022-10-18T13:57:25.971Z,2.83
2022-10-18T14:00:07.698Z,3.08
2022-10-18T14:06:00.033Z,2.60
2022-10-18T14:08:46.034Z,2.85
2022-10-18T14:11:46.427Z,2.90
2022-10-18T14:14:29.902Z,2.92
2022-10-18T14:17:08.494Z,2.83
2022-10-18T14:19:44.556Z,3.70
2022-10-18T14:22:13.865Z,3.17
2022-10-18T14:24:45.779Z,3.10
2022-10-18T14:27:20.663Z,3.28
2022-10-18T14:29:48.670Z,3.20
2022-10-18T14:32:28.989Z,2.90
2022-10-18T14:35:27.325Z,3.13
2022-10-18T14:37:44.717Z,2.67
2022-10-18T14:40:32.405Z,2.30
2022-10-18T14:43:09.027Z,3.05
2022-10-18T14:45:35.667Z,3.22
2022-10-18T14:48:16.537Z,3.15
2022-10-18T14:50:46.050Z,2.70
2022-10-18T14:53:18.790Z,2.88
2022-10-18T14:55:56.182Z,2.67
2022-10-18T14:58:23.264Z,2.78
2022-10-18T15:00:49.944Z,2.83
2022-10-18T15:03:17.700Z,3.80
2022-10-18T15:05:59.824Z,2.85
2022-10-18T15:08:42.291Z,3.35
2022-10-18T15:11:14.460Z,2.33
2022-10-18T15:14:12.270Z,2.70
2022-10-18T15:16:39.954Z,2.72
2022-10-18T15:19:15.815Z,4.22
2022-10-18T15:25:14.919Z,2.00
2022-10-18T15:27:45.242Z,2.83
2022-10-18T15:30:43.153Z,2.53
2022-10-18T15:33:22.674Z,2.25
2022-10-18T15:35:49.504Z,12.68
2022-10-18T15:38:25.952Z,4.13
2022-10-18T15:40:55.496Z,4.78
2022-10-18T15:43:24.884Z,3.38
2022-10-18T15:45:58.828Z,2.42
2022-10-18T15:48:33.776Z,2.80
2022-10-18T15:51:06.152Z,3.55
2022-10-18T15:53:55.069Z,3.60
2022-10-18T15:56:29.975Z,3.45
2022-10-18T15:58:59.926Z,2.90
2022-10-18T16:01:38.484Z,2.90
2022-10-18T16:04:12.302Z,3.17
2022-10-18T16:06:38.910Z,3.60
2022-10-18T16:09:05.853Z,3.45
2022-10-18T16:11:41.427Z,2.55
2022-10-18T16:14:10.361Z,3.33
2022-10-18T16:16:37.278Z,3.15
2022-10-18T16:19:03.805Z,3.38
2022-10-18T16:21:36.263Z,3.15
2022-10-18T16:24:04.382Z,3.05
2022-10-18T16:26:31.685Z,3.45
2022-10-18T16:29:01.948Z,2.85
2022-10-18T16:31:31.962Z,3.65
2022-10-18T16:33:59.793Z,3.70
2022-10-18T16:36:31.383Z,3.55
2022-10-18T16:39:00.775Z,3.85
2022-10-18T16:41:28.065Z,4.65
2022-10-18T16:43:54.623Z,4.10
2022-10-18T16:46:22.540Z,4.10
2022-10-18T16:48:51.929Z,5.07
2022-10-18T16:51:18.384Z,4.38
2022-10-18T16:53:44.909Z,3.85
2022-10-18T16:56:24.307Z,4.13
2022-10-18T16:58:51.468Z,4.03
2022-10-18T17:01:19.845Z,4.15
2022-10-18T17:03:46.976Z,3.97
2022-10-18T17:06:16.935Z,4.10
2022-10-18T17:08:43.831Z,4.63
2022-10-18T17:11:12.113Z,4.68
2022-10-18T17:13:41.557Z,4.32
2022-10-18T17:16:36.664Z,3.65
2022-10-18T17:19:10.664Z,3.95
2022-10-18T17:21:37.775Z,3.95
2022-10-18T17:24:06.081Z,3.60
2022-10-18T17:26:33.955Z,4.72
2022-10-18T17:29:05.541Z,4.15
2022-10-18T17:31:32.857Z,4.13
2022-10-18T17:34:01.546Z,4.40
2022-10-18T17:36:28.598Z,3.95
2022-10-18T17:38:58.724Z,4.70
2022-10-18T17:41:25.535Z,4.57
2022-10-18T17:43:54.519Z,5.03
2022-10-18T17:46:21.111Z,5.35
2022-10-18T17:48:47.924Z,4.50
2022-10-18T17:51:16.265Z,4.93
2022-10-18T17:53:43.449Z,4.25
2022-10-18T17:56:10.765Z,4.32
2022-10-18T17:58:37.300Z,4.32
2022-10-18T18:01:11.019Z,4.50
2022-10-18T18:03:41.800Z,3.88
2022-10-18T18:06:21.702Z,4.82
2022-10-18T18:08:49.491Z,4.90
2022-10-18T18:11:17.042Z,4.35
2022-10-18T18:13:46.697Z,4.03
2022-10-18T18:16:22.075Z,4.22
2022-10-18T18:18:51.102Z,3.65
2022-10-18T18:21:17.906Z,3.65
2022-10-18T18:23:44.760Z,3.90
2022-10-18T18:26:11.314Z,3.78
2022-10-18T18:28:40.308Z,3.90
2022-10-18T18:31:12.356Z,3.58
2022-10-18T18:33:39.018Z,3.45
2022-10-18T18:36:09.515Z,4.28
2022-10-18T18:38:38.944Z,3.72
2022-10-18T18:41:14.677Z,3.40
2022-10-18T18:43:44.067Z,3.83
2022-10-18T18:46:12.724Z,3.88
2022-10-18T18:48:40.814Z,3.85
2022-10-18T18:51:12.022Z,2.75
2022-10-18T18:53:42.994Z,3.58
2022-10-18T18:56:12.043Z,2.70
2022-10-18T18:58:39.565Z,3.67
2022-10-18T19:01:14.676Z,3.53
2022-10-18T19:03:42.782Z,3.42
2022-10-18T19:06:12.077Z,3.28
2022-10-18T19:08:39.985Z,4.28
2022-10-18T19:11:09.359Z,3.70
2022-10-18T19:13:36.400Z,4.15
2022-10-18T19:16:20.482Z,3.38
2022-10-18T19:18:53.918Z,3.42
2022-10-18T19:21:21.934Z,3.92
2022-10-18T19:23:51.885Z,4.05
2022-10-18T19:26:36.466Z,4.45
2022-10-18T19:29:36.229Z,4.40
2022-10-18T19:32:37.351Z,4.13
2022-10-18T19:38:39.245Z,4.22
2022-10-18T19:41:11.566Z,5.15
2022-10-18T19:43:41.173Z,5.70
2022-10-18T19:46:11.393Z,5.78
2022-10-18T19:48:38.155Z,4.45
2022-10-18T19:51:09.517Z,4.97
2022-10-18T19:53:39.526Z,3.88
2022-10-18T20:01:23.019Z,3.67
2022-10-18T20:04:00.979Z,5.13
2022-10-18T20:06:38.288Z,5.68
2022-10-18T20:09:20.493Z,4.90
2022-10-18T20:11:55.831Z,4.88
2022-10-18T20:14:30.330Z,5.20
2022-10-18T20:16:59.624Z,5.32
2022-10-18T20:19:28.037Z,4.43
2022-10-18T20:21:57.921Z,4.28
2022-10-18T20:24:30.142Z,4.22
2022-10-18T20:27:07.492Z,4.50
2022-10-18T20:29:39.972Z,4.45
2022-10-18T20:32:11.307Z,5.15
2022-10-18T20:34:42.340Z,6.00
2022-10-18T20:37:12.189Z,5.38
2022-10-18T20:39:47.870Z,5.95
2022-10-18T20:42:40.063Z,4.43
2022-10-18T20:45:15.941Z,5.47
2022-10-18T20:47:49.094Z,6.13
2022-10-18T20:50:24.177Z,5.70
2022-10-18T20:52:53.453Z,5.85
2022-10-18T20:55:44.452Z,6.10
2022-10-18T20:58:16.559Z,5.88
2022-10-18T21:00:50.559Z,5.47
2022-10-18T21:03:27.721Z,5.35
2022-10-18T21:06:06.828Z,5.78
2022-10-18T21:09:05.321Z,5.65
2022-10-18T21:11:50.952Z,4.45
2022-10-18T21:14:31.978Z,7.03
2022-10-18T21:17:01.729Z,6.00
2022-10-18T21:19:40.897Z,5.22
2022-10-18T21:22:34.690Z,4.57
2022-10-18T21:25:38.702Z,4.40
2022-10-18T21:28:22.929Z,5.57
2022-10-18T21:31:00.019Z,5.55
2022-10-18T21:33:26.799Z,6.50
2022-10-18T21:35:58.538Z,6.85
2022-10-18T21:38:27.712Z,5.57
2022-10-18T21:40:55.826Z,6.13
2022-10-18T21:43:22.598Z,7.35
2022-10-18T21:46:12.168Z,7.78
2022-10-18T21:48:43.903Z,7.22
2022-10-18T21:51:20.543Z,7.72
2022-10-18T21:53:55.370Z,5.38
2022-10-18T21:56:28.450Z,4.90
2022-10-18T21:58:56.936Z,5.88
2022-10-18T22:01:26.300Z,9.25
2022-10-18T22:03:56.976Z,7.55
2022-10-18T22:06:24.500Z,6.90
2022-10-18T22:08:54.165Z,8.32
2022-10-18T22:11:24.610Z,8.45
2022-10-18T22:13:53.587Z,6.75
2022-10-18T22:16:20.862Z,6.30
2022-10-18T22:18:48.970Z,6.80
2022-10-18T22:21:18.206Z,7.22
2022-10-18T22:23:50.133Z,8.00
2022-10-18T22:26:22.844Z,6.15
2022-10-18T22:28:56.464Z,6.25
2022-10-18T22:31:27.051Z,5.75
2022-10-18T22:34:00.131Z,6.28
2022-10-18T22:36:27.581Z,9.20
2022-10-18T22:38:54.332Z,7.32
2022-10-18T22:41:20.910Z,8.55
2022-10-18T22:43:53.772Z,8.50
2022-10-18T22:46:20.664Z,7.75
2022-10-18T22:48:47.939Z,8.20
2022-10-18T22:51:21.054Z,9.68
2022-10-18T22:53:49.989Z,10.68
2022-10-18T22:56:19.809Z,12.52
2022-10-18T22:58:47.986Z,12.23
2022-10-18T23:01:17.474Z,13.70
2022-10-18T23:03:44.634Z,14.98
2022-10-18T23:06:24.782Z,12.90
2022-10-18T23:08:53.158Z,14.70
2022-10-18T23:11:22.724Z,16.67
2022-10-18T23:13:49.439Z,17.75
2022-10-18T23:16:16.828Z,20.15
2022-10-18T23:18:43.883Z,21.73
2022-10-18T23:21:13.396Z,14.82
2022-10-18T23:23:41.962Z,19.83
2022-10-18T23:26:12.185Z,18.98
2022-10-18T23:28:47.029Z,13.38
2022-10-18T23:31:22.353Z,12.68
2022-10-18T23:33:59.646Z,12.98
2022-10-18T23:36:27.856Z,12.52
2022-10-18T23:38:57.910Z,13.18
2022-10-18T23:41:30.963Z,14.15
2022-10-18T23:43:58.551Z,19.85
2022-10-18T23:46:25.303Z,15.90
2022-10-18T23:48:54.319Z,21.70
2022-10-18T23:53:52.130Z,20.52
2022-10-18T23:56:23.052Z,23.83
2022-10-18T23:58:51.310Z,18.40
